Time;durP1;ratioP1;P1;durP2;ratioP2;P2;SDS_P1;SDS_P2;PMS_P1;PMS_P2;Temp;Humidity;BMP_temperature;BMP_pressure;BME280_temperature;BME280_humidity;BME280_pressure;Samples;Min_cycle;Max_cycle;Signal;HPM_P1;HPM_P2
2022/12/15 00:39:39;;;;;;;55.33;31.23;;;-2.20;99.90;;;;;;5063757;28;20690;-32
2022/12/15 00:42:08;;;;;;;49.37;29.83;;;-2.20;99.90;;;;;;5055480;28;20223;-32
2022/12/15 00:44:36;;;;;;;49.50;30.10;;;-2.20;99.90;;;;;;5067464;28;20218;-32
2022/12/15 00:47:07;;;;;;;50.57;29.57;;;-2.20;99.90;;;;;;5065259;28;20224;-32
2022/12/15 01:20:19;;;;;;;52.00;31.77;;;-2.50;99.90;;;;;;5066184;28;20219;-32
2022/12/15 01:22:49;;;;;;;56.67;32.97;;;-2.50;99.90;;;;;;5066275;28;20714;-32
2022/12/15 01:25:18;;;;;;;56.97;32.40;;;-2.50;99.90;;;;;;5065178;28;20261;-32
2022/12/15 01:27:48;;;;;;;63.13;32.87;;;-2.50;99.90;;;;;;5050872;28;20204;-32
2022/12/15 01:30:18;;;;;;;56.87;31.83;;;-2.50;99.90;;;;;;5046089;28;20196;-32
2022/12/15 01:32:45;;;;;;;51.37;31.70;;;-2.50;99.90;;;;;;5052745;28;20274;-32
2022/12/15 01:35:13;;;;;;;56.10;33.37;;;-2.50;99.90;;;;;;5049758;28;20717;-32
2022/12/15 01:37:42;;;;;;;56.87;31.83;;;-2.50;99.90;;;;;;5044784;28;20212;-32
2022/12/15 01:43:11;;;;;;;58.13;33.63;;;-2.60;99.90;;;;;;5045214;28;20598;-32
2022/12/15 01:45:52;;;;;;;59.23;33.70;;;-2.60;99.90;;;;;;5059743;28;20231;-33
2022/12/15 01:48:24;;;;;;;56.07;34.13;;;-2.60;99.90;;;;;;5048434;28;20709;-32
2022/12/15 01:51:25;;;;;;;59.07;34.03;;;-2.60;99.90;;;;;;5050227;28;20293;-32
2022/12/15 01:54:04;;;;;;;52.20;31.90;;;-2.60;99.90;;;;;;5045092;28;20324;-32
2022/12/15 01:56:35;;;;;;;56.63;31.93;;;-2.70;99.90;;;;;;5052648;28;20234;-32
2022/12/15 01:59:11;;;;;;;53.30;31.60;;;-2.70;99.90;;;;;;5058597;28;20731;-33
2022/12/15 02:01:41;;;;;;;58.13;34.27;;;-2.70;99.90;;;;;;5049911;28;20212;-32
2022/12/15 02:04:11;;;;;;;53.27;31.90;;;-2.70;99.90;;;;;;5053262;28;20226;-33
2022/12/15 02:06:38;;;;;;;53.53;32.53;;;-2.70;99.90;;;;;;5059456;28;20679;-32
2022/12/15 02:09:12;;;;;;;56.17;31.67;;;-2.70;99.90;;;;;;5059946;28;20799;-32
2022/12/15 02:11:57;;;;;;;51.50;31.73;;;-2.70;99.90;;;;;;5060518;28;20241;-32
2022/12/15 02:14:44;;;;;;;54.30;32.73;;;-2.80;99.90;;;;;;5054337;28;20211;-32
2022/12/15 02:18:09;;;;;;;56.83;32.37;;;-2.80;99.90;;;;;;5045854;28;20610;-32
2022/12/15 02:21:00;;;;;;;60.00;34.37;;;-2.80;99.90;;;;;;5026639;28;20251;-33
2022/12/15 02:24:09;;;;;;;57.30;34.37;;;-2.90;99.90;;;;;;5048638;28;20848;-32
2022/12/15 02:27:29;;;;;;;55.70;33.33;;;-2.90;99.90;;;;;;5062248;28;20535;-32
2022/12/15 02:30:21;;;;;;;54.03;32.53;;;-2.90;99.90;;;;;;5040057;28;20212;-32
2022/12/15 02:33:03;;;;;;;56.00;33.53;;;-2.90;99.90;;;;;;5065309;28;20231;-32
2022/12/15 02:35:36;;;;;;;59.13;34.17;;;-2.90;99.90;;;;;;5064099;28;20271;-32
2022/12/15 02:38:03;;;;;;;59.87;33.70;;;-2.90;99.90;;;;;;5063707;28;20272;-32
2022/12/15 02:40:33;;;;;;;57.80;34.47;;;-2.90;99.90;;;;;;5051784;28;20307;-31
2022/12/15 02:43:04;;;;;;;63.90;35.73;;;-2.90;99.90;;;;;;5061411;28;20314;-32
2022/12/15 02:45:44;;;;;;;56.83;33.60;;;-2.90;99.90;;;;;;5064715;28;20234;-32
2022/12/15 02:48:39;;;;;;;60.93;33.90;;;-2.90;99.90;;;;;;5064656;28;20203;-32
2022/12/15 02:51:35;;;;;;;64.80;36.70;;;-2.90;99.90;;;;;;5044363;28;20252;-32
2022/12/15 02:54:16;;;;;;;58.63;34.47;;;-2.90;99.90;;;;;;5054233;28;20318;-32
2022/12/15 02:57:22;;;;;;;55.37;33.93;;;-2.90;99.90;;;;;;5044599;28;20725;-32
2022/12/15 03:00:09;;;;;;;60.43;34.60;;;-2.90;99.90;;;;;;5044480;28;20290;-32
2022/12/15 03:02:45;;;;;;;59.07;33.70;;;-3.00;99.90;;;;;;5044981;28;20484;-32
2022/12/15 03:05:16;;;;;;;63.97;36.17;;;-3.00;99.90;;;;;;5043912;28;20991;-32
2022/12/15 03:07:45;;;;;;;59.67;34.37;;;-3.00;99.90;;;;;;5044900;28;20200;-31
2022/12/15 03:10:16;;;;;;;62.70;34.73;;;-3.00;99.90;;;;;;5043389;28;20634;-32
2022/12/15 03:12:46;;;;;;;59.50;34.77;;;-3.00;99.90;;;;;;5044117;28;20266;-32
2022/12/15 03:15:16;;;;;;;56.97;34.03;;;-3.00;99.90;;;;;;5054200;28;20625;-32
2022/12/15 03:17:48;;;;;;;60.27;34.73;;;-3.10;99.90;;;;;;5044586;28;20204;-32
2022/12/15 03:20:18;;;;;;;58.97;35.43;;;-3.10;99.90;;;;;;5054017;28;20714;-32
2022/12/15 03:22:45;;;;;;;52.13;30.63;;;-3.00;99.90;;;;;;5046242;28;20319;-32
2022/12/15 03:25:15;;;;;;;60.57;35.53;;;-3.10;99.90;;;;;;5051335;28;21610;-32
2022/12/15 03:27:44;;;;;;;53.77;33.57;;;-3.10;99.90;;;;;;5044544;28;20194;-32
2022/12/15 03:30:11;;;;;;;56.53;34.50;;;-3.10;99.90;;;;;;5049104;28;20216;-32
2022/12/15 03:32:45;;;;;;;68.33;36.43;;;-3.10;99.90;;;;;;5063558;28;20237;-32
2022/12/15 03:35:12;;;;;;;61.23;34.97;;;-3.10;99.90;;;;;;5059846;28;20206;-32
2022/12/15 03:37:42;;;;;;;64.33;35.50;;;-3.00;99.90;;;;;;5046271;28;20265;-32
2022/12/15 03:40:12;;;;;;;59.50;35.53;;;-3.10;99.90;;;;;;5046996;28;20739;-32
2022/12/15 03:42:48;;;;;;;60.03;35.27;;;-3.10;99.90;;;;;;5047732;28;20235;-32
2022/12/15 03:45:20;;;;;;;63.97;35.93;;;-3.00;99.90;;;;;;5053146;28;20286;-32
2022/12/15 03:47:48;;;;;;;57.47;35.33;;;-3.00;99.90;;;;;;5061243;28;20322;-32
2022/12/15 03:50:23;;;;;;;67.07;35.47;;;-3.10;99.90;;;;;;5053644;28;20409;-32
2022/12/15 03:52:52;;;;;;;60.37;35.90;;;-3.10;99.90;;;;;;5047686;28;20364;-32
2022/12/15 03:55:22;;;;;;;58.10;35.03;;;-3.10;99.90;;;;;;5049144;28;20295;-32
2022/12/15 03:57:50;;;;;;;62.87;34.67;;;-3.10;99.90;;;;;;5047647;28;21012;-32
2022/12/15 04:00:19;;;;;;;61.63;33.83;;;-3.10;99.90;;;;;;5048421;28;20708;-32
2022/12/15 04:02:47;;;;;;;57.80;34.10;;;-3.10;99.90;;;;;;5048401;28;20248;-32
2022/12/15 04:05:27;;;;;;;55.03;33.13;;;-3.10;99.90;;;;;;5053828;28;20204;-32
2022/12/15 04:07:56;;;;;;;57.67;34.40;;;-3.10;99.90;;;;;;5064148;28;20231;-32
2022/12/15 04:10:25;;;;;;;55.27;32.90;;;-3.10;99.90;;;;;;5046754;28;20939;-32
2022/12/15 04:13:02;;;;;;;60.67;34.63;;;-3.10;99.90;;;;;;5048050;28;20716;-32
2022/12/15 04:15:29;;;;;;;58.67;34.00;;;-3.10;99.90;;;;;;5054994;28;20737;-32
2022/12/15 04:17:57;;;;;;;59.13;34.60;;;-3.10;99.90;;;;;;5056844;28;20199;-32
2022/12/15 04:20:24;;;;;;;62.17;35.07;;;-3.20;99.90;;;;;;5061519;28;20220;-32
2022/12/15 04:22:51;;;;;;;61.90;35.03;;;-3.20;99.90;;;;;;5059988;28;20223;-32
2022/12/15 05:32:32;;;;;;;59.63;35.67;;;-3.40;99.90;;;;;;5046270;28;20258;-32
2022/12/15 05:35:00;;;;;;;55.87;33.53;;;-3.40;99.90;;;;;;5049424;28;20671;-32
2022/12/15 05:37:27;;;;;;;56.33;33.17;;;-3.40;99.90;;;;;;5053289;28;20222;-32
2022/12/15 05:39:59;;;;;;;64.37;33.60;;;-3.40;99.90;;;;;;5050035;28;20735;-32
2022/12/15 05:42:26;;;;;;;64.20;35.67;;;-3.40;99.90;;;;;;5051982;28;20626;-32
2022/12/15 05:44:53;;;;;;;60.70;34.30;;;-3.40;99.90;;;;;;5061695;28;20581;-32
2022/12/15 05:47:20;;;;;;;61.33;35.70;;;-3.40;99.90;;;;;;5061438;28;20668;-32
2022/12/15 05:49:50;;;;;;;66.67;37.47;;;-3.40;99.90;;;;;;5055063;28;20277;-32
2022/12/15 05:52:19;;;;;;;59.47;32.70;;;-3.40;99.90;;;;;;5064572;28;20231;-32
2022/12/15 05:54:51;;;;;;;58.77;34.60;;;-3.40;99.90;;;;;;5058899;28;20666;-32
2022/12/15 05:57:23;;;;;;;62.30;34.90;;;-3.40;99.90;;;;;;5044683;28;20247;-32
2022/12/15 05:59:50;;;;;;;63.43;34.23;;;-3.40;99.90;;;;;;5057758;28;20208;-32
2022/12/15 06:02:19;;;;;;;58.17;35.17;;;-3.40;99.90;;;;;;5051177;28;20216;-32
2022/12/15 06:04:46;;;;;;;61.10;35.43;;;-3.40;99.90;;;;;;5051469;28;20223;-32
2022/12/15 06:07:16;;;;;;;58.93;36.40;;;-3.40;99.90;;;;;;5061844;28;20249;-32
2022/12/15 06:09:43;;;;;;;61.77;35.13;;;-3.30;99.90;;;;;;5049587;28;20222;-31
2022/12/15 06:12:11;;;;;;;56.63;33.20;;;-3.30;99.90;;;;;;5050199;28;20742;-32
2022/12/15 06:14:38;;;;;;;61.23;34.67;;;-3.30;99.90;;;;;;5054004;28;20211;-32
2022/12/15 06:17:07;;;;;;;66.53;35.57;;;-3.30;99.90;;;;;;5052410;28;20245;-31
2022/12/15 06:19:34;;;;;;;60.40;33.93;;;-3.30;99.90;;;;;;5057881;28;21060;-32
2022/12/15 06:22:02;;;;;;;66.27;35.90;;;-3.30;99.90;;;;;;5055177;28;20243;-32
2022/12/15 06:24:29;;;;;;;58.57;34.13;;;-3.30;99.90;;;;;;5053194;28;20759;-32
2022/12/15 06:26:58;;;;;;;62.93;34.93;;;-3.30;99.90;;;;;;5047768;28;20216;-32
2022/12/15 06:29:28;;;;;;;59.77;34.10;;;-3.30;99.90;;;;;;5044391;28;20287;-32
2022/12/15 06:31:55;;;;;;;61.40;35.17;;;-3.40;99.90;;;;;;5052557;28;20204;-31
2022/12/15 06:34:22;;;;;;;56.60;32.73;;;-3.40;99.90;;;;;;5045279;28;20678;-32
2022/12/15 06:36:54;;;;;;;60.93;34.70;;;-3.30;99.90;;;;;;5058390;28;20245;-32
2022/12/15 06:39:21;;;;;;;62.67;36.40;;;-3.40;99.90;;;;;;5059678;28;20310;-32
2022/12/15 06:41:48;;;;;;;60.07;34.40;;;-3.30;99.90;;;;;;5063575;28;20302;-32
2022/12/15 06:44:15;;;;;;;63.97;34.77;;;-3.40;99.90;;;;;;5061612;28;20220;-32
2022/12/15 06:46:44;;;;;;;57.13;34.10;;;-3.40;99.90;;;;;;5064582;28;20645;-32
2022/12/15 06:49:12;;;;;;;65.17;34.23;;;-3.40;99.90;;;;;;5061083;28;20207;-32
2022/12/15 06:51:43;;;;;;;57.60;32.97;;;-3.40;99.90;;;;;;5063946;28;20227;-30
2022/12/15 06:54:13;;;;;;;57.10;33.50;;;-3.40;99.90;;;;;;5045257;28;20231;-31
2022/12/15 06:56:41;;;;;;;59.53;33.73;;;-3.40;99.90;;;;;;5047382;28;20565;-30
2022/12/15 06:59:10;;;;;;;61.33;33.90;;;-3.40;99.90;;;;;;5043935;28;20204;-31
2022/12/15 07:01:40;;;;;;;57.57;32.77;;;-3.40;99.90;;;;;;5046222;28;20223;-30
2022/12/15 07:04:09;;;;;;;53.83;32.37;;;-3.40;99.90;;;;;;5050864;28;20284;-30
2022/12/15 07:06:41;;;;;;;57.83;33.63;;;-3.40;99.90;;;;;;5054935;28;20230;-31
2022/12/15 07:09:14;;;;;;;62.33;34.60;;;-3.40;99.90;;;;;;5045215;28;20720;-30
2022/12/15 07:11:42;;;;;;;56.97;33.43;;;-3.40;99.90;;;;;;5059323;28;20215;-30
2022/12/15 07:14:12;;;;;;;58.87;34.03;;;-3.40;99.90;;;;;;5061958;28;20624;-31
2022/12/15 07:16:39;;;;;;;57.17;31.80;;;-3.40;99.90;;;;;;5069076;28;21025;-31
2022/12/15 07:19:10;;;;;;;60.07;34.00;;;-3.40;99.90;;;;;;5068838;28;20209;-31
2022/12/15 07:21:40;;;;;;;58.43;34.80;;;-3.40;99.90;;;;;;5067484;28;20230;-31
2022/12/15 07:24:12;;;;;;;57.93;33.20;;;-3.40;99.90;;;;;;5061062;28;20323;-31
2022/12/15 07:26:42;;;;;;;56.50;33.20;;;-3.40;99.90;;;;;;5061620;28;20253;-31
2022/12/15 07:29:13;;;;;;;56.03;33.10;;;-3.40;99.90;;;;;;5056930;28;20206;-31
2022/12/15 07:31:48;;;;;;;56.47;33.83;;;-3.40;99.90;;;;;;5048746;28;20674;-31
2022/12/15 07:34:21;;;;;;;58.47;34.87;;;-3.40;99.90;;;;;;5047147;28;20262;-30
2022/12/15 07:36:48;;;;;;;60.57;34.03;;;-3.40;99.90;;;;;;5051293;28;20212;-31
2022/12/15 07:39:18;;;;;;;55.20;33.97;;;-3.40;99.90;;;;;;5058090;28;20365;-31
2022/12/15 07:41:48;;;;;;;54.03;32.57;;;-3.40;99.90;;;;;;5053063;28;20215;-31
2022/12/15 07:44:18;;;;;;;58.67;33.30;;;-3.40;99.90;;;;;;5054483;28;20729;-30
2022/12/15 07:46:47;;;;;;;61.80;32.83;;;-3.40;99.90;;;;;;5062199;28;20271;-31
2022/12/15 07:49:18;;;;;;;61.73;33.37;;;-3.40;99.90;;;;;;5067544;28;20218;-31
2022/12/15 07:51:45;;;;;;;60.83;32.53;;;-3.40;99.90;;;;;;5062658;28;20227;-30
2022/12/15 07:54:13;;;;;;;55.83;32.87;;;-3.40;99.90;;;;;;5049567;28;20200;-31
2022/12/15 07:56:43;;;;;;;54.20;32.27;;;-3.40;99.90;;;;;;5054191;28;20215;-31
2022/12/15 07:59:16;;;;;;;58.33;32.87;;;-3.40;99.90;;;;;;5059494;28;20507;-31
2022/12/15 08:01:43;;;;;;;57.13;31.90;;;-3.40;99.90;;;;;;5059140;28;20307;-31
2022/12/15 08:04:13;;;;;;;58.30;34.47;;;-3.40;99.90;;;;;;5062683;28;20665;-30
2022/12/15 08:06:43;;;;;;;63.30;35.57;;;-3.40;99.90;;;;;;5066786;28;20211;-31
2022/12/15 08:09:11;;;;;;;60.97;34.40;;;-3.30;99.90;;;;;;5059120;28;20290;-31
2022/12/15 08:11:38;;;;;;;58.80;34.43;;;-3.30;99.90;;;;;;5059705;28;20271;-31
2022/12/15 08:14:07;;;;;;;52.90;32.63;;;-3.30;99.90;;;;;;5050862;28;20344;-31
2022/12/15 08:16:44;;;;;;;62.57;33.47;;;-3.30;99.90;;;;;;5050778;28;20206;-31
2022/12/15 08:19:12;;;;;;;61.60;34.17;;;-3.20;99.90;;;;;;5052444;28;20542;-31
2022/12/15 08:21:41;;;;;;;61.60;33.03;;;-3.20;99.90;;;;;;5066427;28;20207;-31
2022/12/15 08:24:09;;;;;;;64.13;32.93;;;-3.20;99.90;;;;;;5056868;28;20312;-30
2022/12/15 08:26:37;;;;;;;58.90;34.70;;;-3.20;99.90;;;;;;5049969;28;20204;-31
2022/12/15 08:29:13;;;;;;;56.80;33.37;;;-3.20;99.90;;;;;;5050293;28;20199;-31
2022/12/15 08:32:02;;;;;;;60.17;33.93;;;-3.20;99.90;;;;;;5047732;28;20241;-30
2022/12/15 08:34:29;;;;;;;58.80;33.70;;;-3.20;99.90;;;;;;5047368;28;20200;-31
2022/12/15 08:36:57;;;;;;;58.63;33.53;;;-3.20;99.90;;;;;;5052954;28;20555;-31
2022/12/15 08:39:24;;;;;;;59.90;34.80;;;-3.20;99.90;;;;;;5058937;28;20712;-31
2022/12/15 08:41:51;;;;;;;59.70;33.40;;;-3.20;99.90;;;;;;5064236;28;20842;-31
2022/12/15 08:44:21;;;;;;;58.80;34.13;;;-3.20;99.90;;;;;;5060202;28;20314;-31
2022/12/15 08:46:53;;;;;;;54.37;31.60;;;-3.20;99.90;;;;;;5063257;28;20230;-31
2022/12/15 08:49:21;;;;;;;62.60;35.77;;;-3.10;99.90;;;;;;5063024;28;20674;-30
2022/12/15 08:51:53;;;;;;;59.00;34.67;;;-3.20;99.90;;;;;;5057483;28;20619;-30
2022/12/15 08:54:22;;;;;;;58.37;32.77;;;-3.10;99.90;;;;;;5057812;28;20200;-31
2022/12/15 08:56:49;;;;;;;57.57;32.73;;;-3.10;99.90;;;;;;5058652;28;20277;-31
2022/12/15 08:59:19;;;;;;;61.03;33.30;;;-3.10;99.90;;;;;;5054153;28;20266;-31
2022/12/15 09:01:46;;;;;;;61.47;34.10;;;-3.10;99.90;;;;;;5061254;28;20318;-31
2022/12/15 09:04:14;;;;;;;59.07;33.20;;;-3.10;99.90;;;;;;5066902;28;20223;-31
2022/12/15 09:06:44;;;;;;;56.30;33.57;;;-3.00;99.90;;;;;;5064928;28;20210;-31
2022/12/15 09:09:19;;;;;;;57.40;32.47;;;-3.00;99.90;;;;;;5056095;28;20462;-31
2022/12/15 09:11:48;;;;;;;57.33;34.67;;;-3.00;99.90;;;;;;5049921;28;20667;-31
2022/12/15 09:14:18;;;;;;;58.00;34.03;;;-2.90;99.90;;;;;;5051076;28;20238;-30
2022/12/15 09:16:57;;;;;;;59.23;33.33;;;-2.90;99.90;;;;;;5060497;28;20211;-33
2022/12/15 09:19:24;;;;;;;57.00;34.23;;;-2.90;99.90;;;;;;5064988;28;20207;-31
2022/12/15 09:21:51;;;;;;;55.27;32.90;;;-2.80;99.90;;;;;;5062997;28;20238;-31
2022/12/15 09:24:23;;;;;;;57.23;33.23;;;-2.80;99.90;;;;;;5064535;28;20326;-30
2022/12/15 09:27:03;;;;;;;54.83;33.23;;;-2.70;99.90;;;;;;5065535;28;20207;-31
2022/12/15 09:29:37;;;;;;;56.07;33.33;;;-2.70;99.90;;;;;;5065490;28;20200;-31
2022/12/15 09:32:09;;;;;;;60.73;32.83;;;-2.60;99.90;;;;;;5066409;28;20234;-30
2022/12/15 09:34:42;;;;;;;59.63;32.63;;;-2.60;99.90;;;;;;5066308;28;20199;-31
2022/12/15 09:37:10;;;;;;;55.43;32.73;;;-2.50;99.90;;;;;;5055089;28;20240;-31
2022/12/15 09:39:37;;;;;;;53.83;32.57;;;-2.50;99.90;;;;;;5045702;28;20678;-31
2022/12/15 09:42:05;;;;;;;55.73;31.43;;;-2.40;99.90;;;;;;5045025;28;20215;-31
2022/12/15 09:44:36;;;;;;;58.60;32.80;;;-2.40;99.90;;;;;;5052130;28;20635;-31
2022/12/15 09:47:10;;;;;;;54.27;29.83;;;-2.30;99.90;;;;;;5055830;28;20607;-31
2022/12/15 09:50:01;;;;;;;56.40;31.27;;;-2.30;99.90;;;;;;5044546;28;20262;-31
2022/12/15 09:52:38;;;;;;;57.27;31.90;;;-2.20;99.90;;;;;;5056710;28;20280;-31
2022/12/15 09:55:18;;;;;;;56.13;31.03;;;-2.20;99.90;;;;;;5065460;28;20624;-31
2022/12/15 09:57:55;;;;;;;55.53;32.87;;;-2.10;99.90;;;;;;5050975;28;20789;-31
2022/12/15 10:00:33;;;;;;;50.73;30.60;;;-2.10;99.90;;;;;;5055964;28;20217;-31
2022/12/15 10:03:22;;;;;;;54.00;31.27;;;-2.00;99.90;;;;;;5046126;28;20619;-31
2022/12/15 10:06:10;;;;;;;62.63;34.10;;;-1.90;99.90;;;;;;5047505;28;20569;-31
2022/12/15 10:08:57;;;;;;;57.47;32.47;;;-1.90;99.90;;;;;;5056691;28;20211;-31
2022/12/15 10:11:27;;;;;;;60.57;33.10;;;-1.80;99.90;;;;;;5052891;28;20231;-31
2022/12/15 10:14:46;;;;;;;62.77;34.60;;;-1.80;99.90;;;;;;5055020;28;20200;-31
2022/12/15 10:17:23;;;;;;;61.17;35.10;;;-1.70;99.90;;;;;;5042968;28;20220;-31
2022/12/15 10:20:12;;;;;;;58.07;35.73;;;-1.70;99.90;;;;;;5045342;28;20237;-31
2022/12/15 10:22:39;;;;;;;58.37;32.60;;;-1.60;99.90;;;;;;5055174;28;20737;-31
2022/12/15 10:25:20;;;;;;;63.80;33.53;;;-1.50;99.90;;;;;;5063461;28;20222;-31
2022/12/15 10:28:14;;;;;;;55.53;31.17;;;-1.50;99.90;;;;;;5063079;28;20204;-31
2022/12/15 10:31:02;;;;;;;56.20;33.13;;;-1.40;99.90;;;;;;5050482;28;20195;-31
2022/12/15 10:33:38;;;;;;;53.80;31.93;;;-1.30;99.90;;;;;;5044812;28;20732;-30
2022/12/15 10:36:11;;;;;;;59.20;32.47;;;-1.30;99.90;;;;;;5057742;28;20237;-31
2022/12/15 10:38:46;;;;;;;53.57;30.67;;;-1.20;99.90;;;;;;5057576;28;20203;-30
2022/12/15 10:41:33;;;;;;;54.53;32.07;;;-1.20;99.90;;;;;;5052481;28;20204;-30
2022/12/15 10:44:01;;;;;;;52.93;29.93;;;-1.10;99.90;;;;;;5045650;28;20228;-30
2022/12/15 10:46:31;;;;;;;54.93;31.53;;;-1.00;99.90;;;;;;5046583;28;20227;-30
2022/12/15 10:49:22;;;;;;;53.77;31.67;;;-0.90;99.90;;;;;;5049689;28;20203;-30
2022/12/15 10:51:56;;;;;;;57.00;33.03;;;-0.90;99.90;;;;;;5054055;28;20243;-30
2022/12/15 10:54:31;;;;;;;49.17;30.87;;;-0.80;99.90;;;;;;5050329;28;20208;-31
2022/12/15 10:57:16;;;;;;;60.97;34.23;;;-0.70;99.90;;;;;;5060881;28;20209;-30
2022/12/15 10:59:43;;;;;;;60.53;31.93;;;-0.70;99.90;;;;;;5061939;28;20269;-30
2022/12/15 11:02:19;;;;;;;55.67;32.10;;;-0.60;99.90;;;;;;5056956;28;20688;-30
2022/12/15 11:05:14;;;;;;;55.33;30.87;;;-0.50;99.90;;;;;;5055861;28;20310;-30
2022/12/15 11:07:49;;;;;;;56.00;33.47;;;-0.50;99.90;;;;;;5054867;28;20206;-30
2022/12/15 11:10:24;;;;;;;53.30;30.80;;;-0.50;99.90;;;;;;5055039;28;20207;-30
2022/12/15 11:13:17;;;;;;;50.17;31.63;;;-0.40;99.90;;;;;;5045856;28;20226;-30
2022/12/15 11:15:55;;;;;;;52.43;32.20;;;-0.30;99.90;;;;;;5056760;28;20207;-30
2022/12/15 11:18:29;;;;;;;51.67;31.37;;;-0.20;99.90;;;;;;5062204;28;20206;-30
2022/12/15 11:21:02;;;;;;;51.53;30.67;;;-0.20;99.90;;;;;;5053936;28;20774;-30
2022/12/15 11:24:09;;;;;;;49.27;31.63;;;-0.10;99.90;;;;;;5055021;28;20629;-30
2022/12/15 11:27:11;;;;;;;53.90;30.70;;;-0.10;99.90;;;;;;5046285;28;20231;-32
2022/12/15 11:29:59;;;;;;;51.17;31.27;;;0.00;99.90;;;;;;5051356;28;20207;-32
2022/12/15 11:32:36;;;;;;;48.63;30.47;;;0.00;99.90;;;;;;5057664;28;20675;-31
2022/12/15 11:35:12;;;;;;;53.20;31.30;;;0.10;99.90;;;;;;5053030;28;20669;-31
2022/12/15 11:37:42;;;;;;;50.27;30.67;;;0.10;99.90;;;;;;5056965;28;20638;-32
2022/12/15 11:40:27;;;;;;;52.70;32.37;;;0.20;99.90;;;;;;5044353;28;20231;-31
2022/12/15 11:43:08;;;;;;;52.23;32.00;;;0.20;99.90;;;;;;5055462;28;20692;-32
2022/12/15 11:45:58;;;;;;;54.17;32.37;;;0.30;99.90;;;;;;5057894;28;20783;-32
2022/12/15 11:48:42;;;;;;;50.80;30.10;;;0.40;99.90;;;;;;5054420;28;20211;-31
2022/12/15 11:51:22;;;;;;;46.97;29.53;;;0.40;99.90;;;;;;5048359;28;20231;-32
2022/12/15 11:54:09;;;;;;;45.07;27.30;;;0.50;99.90;;;;;;5054929;28;20210;-32
2022/12/15 11:56:55;;;;;;;49.67;28.33;;;0.50;99.90;;;;;;5052671;28;20199;-31
2022/12/15 11:59:37;;;;;;;50.63;30.97;;;0.60;99.90;;;;;;5058493;28;20723;-32
2022/12/15 12:02:35;;;;;;;54.30;30.60;;;0.60;99.90;;;;;;5057273;28;20204;-32
2022/12/15 12:05:27;;;;;;;49.07;29.83;;;0.70;99.90;;;;;;5061940;28;20792;-32
2022/12/15 12:08:16;;;;;;;55.90;32.07;;;0.70;99.90;;;;;;5061792;28;20613;-32
2022/12/15 12:10:54;;;;;;;50.43;31.23;;;0.80;99.90;;;;;;5064766;28;20210;-32
2022/12/15 12:13:45;;;;;;;53.17;30.87;;;0.80;99.90;;;;;;5061318;28;20207;-31
2022/12/15 12:16:39;;;;;;;54.97;31.03;;;0.90;99.90;;;;;;5061617;28;20214;-32
2022/12/15 12:19:18;;;;;;;52.00;28.13;;;1.00;99.90;;;;;;5064949;28;20208;-32
2022/12/15 12:21:57;;;;;;;52.90;29.03;;;1.00;99.90;;;;;;5059993;28;20229;-31
2022/12/15 12:24:30;;;;;;;53.20;31.40;;;1.10;99.90;;;;;;5060139;28;20254;-31
2022/12/15 12:27:02;;;;;;;57.03;31.63;;;1.10;99.90;;;;;;5059597;28;20246;-31
2022/12/15 12:29:33;;;;;;;47.80;28.17;;;1.20;99.90;;;;;;5064030;28;20311;-31
2022/12/15 12:32:14;;;;;;;46.37;28.93;;;1.20;99.90;;;;;;5065629;28;20295;-31
2022/12/15 12:34:56;;;;;;;45.60;28.60;;;1.30;99.90;;;;;;5058980;28;20226;-31
2022/12/15 12:37:59;;;;;;;46.60;28.40;;;1.30;99.90;;;;;;5052194;28;20196;-31
2022/12/15 12:40:46;;;;;;;50.20;29.80;;;1.40;99.90;;;;;;5050909;28;20204;-31
2022/12/15 12:43:31;;;;;;;45.33;28.43;;;1.40;99.90;;;;;;5057067;28;20753;-33
2022/12/15 12:46:21;;;;;;;45.60;29.00;;;1.50;99.90;;;;;;5058068;28;20224;-31
2022/12/15 12:49:16;;;;;;;41.73;27.57;;;1.50;99.90;;;;;;5054688;28;20319;-31
2022/12/15 12:51:57;;;;;;;46.57;27.07;;;1.50;99.90;;;;;;5060654;28;20464;-32
2022/12/15 12:55:10;;;;;;;46.83;29.10;;;1.50;99.90;;;;;;5055981;28;20204;-32
2022/12/15 12:57:45;;;;;;;45.40;29.43;;;1.60;99.90;;;;;;5049085;28;20316;-32
2022/12/15 13:00:34;;;;;;;46.87;29.77;;;1.60;99.90;;;;;;5063200;28;20253;-32
2022/12/15 13:03:20;;;;;;;46.83;28.60;;;1.60;99.90;;;;;;5059748;28;20295;-32
2022/12/15 13:05:49;;;;;;;40.37;26.17;;;1.70;99.90;;;;;;5056630;28;20219;-32
2022/12/15 13:08:26;;;;;;;43.93;28.03;;;1.70;99.90;;;;;;5057557;28;20192;-32
2022/12/15 13:10:55;;;;;;;48.53;30.00;;;1.80;99.90;;;;;;5054123;28;20311;-32
2022/12/15 13:13:32;;;;;;;44.17;28.60;;;1.80;99.90;;;;;;5043997;28;20266;-32
2022/12/15 13:16:05;;;;;;;42.23;28.63;;;1.90;99.90;;;;;;5057397;28;20234;-32
2022/12/15 13:19:00;;;;;;;49.70;28.87;;;1.90;99.90;;;;;;5054188;28;20559;-32
2022/12/15 13:24:27;;;;;;;43.17;27.20;;;2.00;99.90;;;;;;5063998;28;20211;-31
2022/12/15 13:27:07;;;;;;;45.60;27.80;;;2.10;99.90;;;;;;5062574;28;20229;-32
2022/12/15 13:29:58;;;;;;;44.87;28.63;;;2.10;99.90;;;;;;5055698;28;20203;-32
2022/12/15 13:32:35;;;;;;;48.53;28.07;;;2.10;99.90;;;;;;5046290;28;20224;-32
2022/12/15 13:35:12;;;;;;;44.80;28.23;;;2.10;99.90;;;;;;5049656;28;20708;-32
2022/12/15 13:37:51;;;;;;;39.47;26.00;;;2.20;99.90;;;;;;5060156;28;20200;-32
2022/12/15 13:40:24;;;;;;;42.17;26.97;;;2.20;99.90;;;;;;5061102;28;20324;-31
2022/12/15 13:43:03;;;;;;;46.07;28.70;;;2.20;99.90;;;;;;5063242;28;20568;-31
2022/12/15 13:45:36;;;;;;;42.73;27.90;;;2.30;99.90;;;;;;5050024;28;20230;-31
2022/12/15 13:48:35;;;;;;;42.77;26.67;;;2.30;99.90;;;;;;5045094;28;20655;-31
2022/12/15 13:51:18;;;;;;;42.17;26.87;;;2.30;99.90;;;;;;5046939;28;21555;-31
2022/12/15 13:54:14;;;;;;;39.23;25.60;;;2.40;99.90;;;;;;5045594;28;20561;-31
2022/12/15 13:56:48;;;;;;;36.07;22.50;;;2.40;99.90;;;;;;5043385;28;20205;-31
2022/12/15 13:59:41;;;;;;;36.03;23.27;;;2.50;99.90;;;;;;5049388;28;20214;-31
2022/12/15 14:02:27;;;;;;;37.67;22.53;;;2.50;99.90;;;;;;5061814;28;20206;-31
2022/12/15 14:05:16;;;;;;;34.20;20.37;;;2.60;99.90;;;;;;5044954;28;20337;-31
2022/12/15 14:07:52;;;;;;;30.90;19.83;;;2.60;99.90;;;;;;5049130;28;20203;-31
2022/12/15 14:10:28;;;;;;;32.03;19.83;;;2.60;99.90;;;;;;5060775;28;20222;-31
2022/12/15 14:13:00;;;;;;;28.93;19.23;;;2.60;99.90;;;;;;5062139;28;20212;-31
2022/12/15 14:15:32;;;;;;;34.20;20.80;;;2.60;99.90;;;;;;5062611;28;20208;-31
2022/12/15 14:18:03;;;;;;;36.87;22.23;;;2.70;99.90;;;;;;5064151;28;20200;-31
2022/12/15 14:20:40;;;;;;;36.83;23.17;;;2.70;99.90;;;;;;5060722;28;20261;-31
2022/12/15 14:23:25;;;;;;;32.97;22.87;;;2.70;99.90;;;;;;5045992;28;20645;-34
2022/12/15 14:25:53;;;;;;;38.57;24.40;;;2.80;99.90;;;;;;5045297;28;20224;-31
2022/12/15 14:28:29;;;;;;;37.03;23.70;;;2.90;99.90;;;;;;5053329;28;20753;-31
2022/12/15 14:31:13;;;;;;;39.20;24.23;;;3.00;99.90;;;;;;5062259;28;20818;-31
2022/12/15 14:33:43;;;;;;;35.07;24.00;;;3.10;99.90;;;;;;5059723;28;20221;-31
2022/12/15 14:36:18;;;;;;;40.67;24.57;;;3.10;99.90;;;;;;5063045;28;20242;-31
2022/12/15 14:39:03;;;;;;;40.50;23.60;;;3.20;99.90;;;;;;5054400;28;20290;-31
2022/12/15 14:41:40;;;;;;;40.20;23.20;;;3.20;99.90;;;;;;5052756;28;20212;-31
2022/12/15 14:44:22;;;;;;;37.57;24.23;;;3.10;99.90;;;;;;5045840;28;20203;-31
2022/12/15 14:47:14;;;;;;;34.47;20.87;;;3.10;99.90;;;;;;5056234;28;20717;-32
2022/12/15 14:49:44;;;;;;;33.23;21.30;;;3.10;99.90;;;;;;5047599;28;20270;-32
2022/12/15 14:52:35;;;;;;;36.33;22.20;;;3.10;99.90;;;;;;5048958;28;20770;-32
2022/12/15 14:55:36;;;;;;;38.13;21.90;;;3.10;99.90;;;;;;5045305;28;20185;-32
2022/12/15 14:58:39;;;;;;;31.83;21.00;;;3.20;99.90;;;;;;5059724;28;20646;-32
2022/12/15 15:01:28;;;;;;;32.83;21.27;;;3.20;99.90;;;;;;5024311;28;20220;-32
2022/12/15 15:04:03;;;;;;;35.10;22.63;;;3.20;99.90;;;;;;5056325;28;20203;-31
2022/12/15 15:06:39;;;;;;;38.30;24.43;;;3.20;99.90;;;;;;5056247;28;20215;-32
2022/12/15 15:09:23;;;;;;;37.40;23.27;;;3.20;99.90;;;;;;5060088;28;20195;-32
2022/12/15 15:12:01;;;;;;;36.80;21.73;;;3.20;99.90;;;;;;5061092;28;20227;-31
2022/12/15 15:14:51;;;;;;;37.13;22.67;;;3.20;99.90;;;;;;5047572;28;20490;-32
2022/12/15 15:17:50;;;;;;;43.20;26.47;;;3.20;99.90;;;;;;5053247;28;20670;-32
2022/12/15 15:20:30;;;;;;;38.07;24.17;;;3.10;99.90;;;;;;5043865;28;20216;-32
2022/12/15 15:23:09;;;;;;;34.23;23.17;;;3.10;99.90;;;;;;5043438;28;20207;-32
2022/12/15 15:25:47;;;;;;;38.37;23.03;;;3.00;99.90;;;;;;5054666;28;20204;-33
2022/12/15 15:28:17;;;;;;;36.83;22.30;;;3.00;99.90;;;;;;5054076;28;20246;-33
2022/12/15 15:30:51;;;;;;;38.07;23.77;;;3.00;99.90;;;;;;5055531;28;20204;-33
2022/12/15 15:33:26;;;;;;;41.60;23.03;;;2.90;99.90;;;;;;5063211;28;20284;-31
2022/12/15 15:36:01;;;;;;;40.03;25.47;;;2.90;99.90;;;;;;5059281;28;20212;-33
2022/12/15 15:38:33;;;;;;;41.77;24.07;;;2.90;99.90;;;;;;5061063;28;20219;-34